sensor_id;sensor_type;location;lat;lon;timestamp;pressure;altitude;pressure_sealevel;temperature;humidity
26487;BME280;14425;56.136;40.360;2022-08-24T00:06:40;100869.47;;;23.56;47.34
26487;BME280;14425;56.136;40.360;2022-08-24T00:09:22;100865.06;;;23.55;47.65
26487;BME280;14425;56.136;40.360;2022-08-24T00:12:15;100875.44;;;23.01;48.13
26487;BME280;14425;56.136;40.360;2022-08-24T00:14:58;100874.47;;;22.76;49.54
26487;BME280;14425;56.136;40.360;2022-08-24T00:18:16;100881.41;;;22.71;49.97
26487;BME280;14425;56.136;40.360;2022-08-24T00:55:14;100897.75;;;22.24;51.98
26487;BME280;14425;56.136;40.360;2022-08-24T00:57:54;100894.97;;;22.04;52.17
26487;BME280;14425;56.136;40.360;2022-08-24T01:00:33;100899.50;;;22.23;52.20
26487;BME280;14425;56.136;40.360;2022-08-24T01:03:35;100895.88;;;22.09;50.91
26487;BME280;14425;56.136;40.360;2022-08-24T01:06:17;100901.72;;;21.75;50.90
26487;BME280;14425;56.136;40.360;2022-08-24T01:08:47;100904.31;;;21.74;51.74
26487;BME280;14425;56.136;40.360;2022-08-24T01:11:16;100893.50;;;21.46;51.52
26487;BME280;14425;56.136;40.360;2022-08-24T01:13:47;100903.72;;;21.18;51.95
26487;BME280;14425;56.136;40.360;2022-08-24T01:16:39;100908.13;;;21.24;52.43
26487;BME280;14425;56.136;40.360;2022-08-24T01:26:04;100902.09;;;21.31;51.61
26487;BME280;14425;56.136;40.360;2022-08-24T01:28:37;100903.88;;;21.32;52.01
26487;BME280;14425;56.136;40.360;2022-08-24T01:31:18;100901.34;;;21.45;52.50
26487;BME280;14425;56.136;40.360;2022-08-24T01:33:51;100912.06;;;21.63;51.34
26487;BME280;14425;56.136;40.360;2022-08-24T01:36:31;100903.50;;;21.76;52.59
26487;BME280;14425;56.136;40.360;2022-08-24T01:38:59;100908.16;;;22.08;52.07
26487;BME280;14425;56.136;40.360;2022-08-24T01:41:36;100906.63;;;22.35;51.04
26487;BME280;14425;56.136;40.360;2022-08-24T01:44:02;100909.28;;;22.38;51.42
26487;BME280;14425;56.136;40.360;2022-08-24T01:46:31;100910.03;;;22.25;52.08
26487;BME280;14425;56.136;40.360;2022-08-24T01:48:59;100914.91;;;21.85;52.54
26487;BME280;14425;56.136;40.360;2022-08-24T01:51:32;100914.91;;;21.85;52.39
26487;BME280;14425;56.136;40.360;2022-08-24T01:54:24;100910.25;;;21.56;51.41
26487;BME280;14425;56.136;40.360;2022-08-24T01:56:54;100911.72;;;21.32;52.04
26487;BME280;14425;56.136;40.360;2022-08-24T01:59:24;100908.03;;;21.16;53.52
26487;BME280;14425;56.136;40.360;2022-08-24T02:01:54;100913.22;;;21.09;53.29
26487;BME280;14425;56.136;40.360;2022-08-24T02:04:24;100918.22;;;20.92;53.13
26487;BME280;14425;56.136;40.360;2022-08-24T02:10:02;100921.44;;;20.71;53.35
26487;BME280;14425;56.136;40.360;2022-08-24T02:12:29;100917.97;;;20.75;53.58
26487;BME280;14425;56.136;40.360;2022-08-24T02:15:14;100920.84;;;20.92;52.66
26487;BME280;14425;56.136;40.360;2022-08-24T02:17:41;100922.03;;;21.15;52.04
26487;BME280;14425;56.136;40.360;2022-08-24T02:20:09;100915.16;;;21.28;52.32
26487;BME280;14425;56.136;40.360;2022-08-24T02:22:34;100923.19;;;21.40;52.00
26487;BME280;14425;56.136;40.360;2022-08-24T02:25:00;100921.81;;;21.72;51.52
26487;BME280;14425;56.136;40.360;2022-08-24T02:27:26;100914.97;;;21.91;51.29
26487;BME280;14425;56.136;40.360;2022-08-24T02:29:51;100915.00;;;21.92;52.37
26487;BME280;14425;56.136;40.360;2022-08-24T02:32:17;100917.81;;;22.15;51.18
26487;BME280;14425;56.136;40.360;2022-08-24T02:34:43;100915.38;;;22.34;51.53
26487;BME280;14425;56.136;40.360;2022-08-24T02:37:09;100917.94;;;22.26;52.00
26487;BME280;14425;56.136;40.360;2022-08-24T02:39:35;100922.25;;;22.20;52.04
26487;BME280;14425;56.136;40.360;2022-08-24T02:42:01;100918.78;;;22.27;52.00
26487;BME280;14425;56.136;40.360;2022-08-24T02:44:26;100922.34;;;22.30;51.32
26487;BME280;14425;56.136;40.360;2022-08-24T02:46:52;100921.69;;;22.62;50.56
26487;BME280;14425;56.136;40.360;2022-08-24T02:49:18;100926.00;;;22.52;51.41
26487;BME280;14425;56.136;40.360;2022-08-24T02:51:47;100926.94;;;22.56;51.65
26487;BME280;14425;56.136;40.360;2022-08-24T02:54:13;100929.56;;;22.56;51.23
26487;BME280;14425;56.136;40.360;2022-08-24T02:56:42;100929.53;;;22.51;51.95
26487;BME280;14425;56.136;40.360;2022-08-24T02:59:08;100924.84;;;22.15;53.52
26487;BME280;14425;56.136;40.360;2022-08-24T03:01:33;100930.91;;;22.09;53.66
26487;BME280;14425;56.136;40.360;2022-08-24T03:03:59;100932.00;;;22.31;52.75
26487;BME280;14425;56.136;40.360;2022-08-24T03:06:25;100927.69;;;22.43;52.31
26487;BME280;14425;56.136;40.360;2022-08-24T03:08:51;100927.84;;;22.63;51.63
26487;BME280;14425;56.136;40.360;2022-08-24T03:11:19;100927.03;;;22.75;51.08
26487;BME280;14425;56.136;40.360;2022-08-24T03:13:44;100926.25;;;22.96;50.40
26487;BME280;14425;56.136;40.360;2022-08-24T03:16:10;100927.28;;;23.16;49.24
26487;BME280;14425;56.136;40.360;2022-08-24T03:18:36;100929.91;;;23.19;49.72
26487;BME280;14425;56.136;40.360;2022-08-24T03:21:02;100928.94;;;23.05;51.17
26487;BME280;14425;56.136;40.360;2022-08-24T03:23:28;100938.38;;;22.69;52.07
26487;BME280;14425;56.136;40.360;2022-08-24T03:25:57;100936.63;;;22.71;52.82
26487;BME280;14425;56.136;40.360;2022-08-24T03:28:25;100935.88;;;22.91;52.43
26487;BME280;14425;56.136;40.360;2022-08-24T03:30:54;100939.44;;;23.03;51.64
26487;BME280;14425;56.136;40.360;2022-08-24T03:33:25;100937.81;;;23.21;50.92
26487;BME280;14425;56.136;40.360;2022-08-24T03:35:51;100938.72;;;23.35;50.76
26487;BME280;14425;56.136;40.360;2022-08-24T03:38:17;100932.50;;;23.12;51.77
26487;BME280;14425;56.136;40.360;2022-08-24T03:40:43;100936.75;;;22.93;52.24
26487;BME280;14425;56.136;40.360;2022-08-24T03:43:08;100948.97;;;22.78;53.20
26487;BME280;14425;56.136;40.360;2022-08-24T03:45:54;100947.31;;;22.97;52.55
26487;BME280;14425;56.136;40.360;2022-08-24T03:48:20;100938.56;;;23.01;52.82
26487;BME280;14425;56.136;40.360;2022-08-24T03:50:45;100942.09;;;23.05;53.81
26487;BME280;14425;56.136;40.360;2022-08-24T03:53:11;100942.97;;;22.99;54.13
26487;BME280;14425;56.136;40.360;2022-08-24T03:55:36;100948.88;;;22.67;55.51
26487;BME280;14425;56.136;40.360;2022-08-24T03:58:02;100949.91;;;22.93;54.58
26487;BME280;14425;56.136;40.360;2022-08-24T04:00:28;100944.78;;;23.14;53.57
26487;BME280;14425;56.136;40.360;2022-08-24T04:02:53;100946.59;;;23.21;52.54
26487;BME280;14425;56.136;40.360;2022-08-24T04:05:19;100942.25;;;23.42;52.00
26487;BME280;14425;56.136;40.360;2022-08-24T04:07:45;100939.63;;;23.43;52.46
26487;BME280;14425;56.136;40.360;2022-08-24T04:10:10;100942.25;;;23.34;53.55
26487;BME280;14425;56.136;40.360;2022-08-24T04:12:38;100937.91;;;23.53;52.71
26487;BME280;14425;56.136;40.360;2022-08-24T04:15:04;100944.97;;;23.67;52.15
26487;BME280;14425;56.136;40.360;2022-08-24T04:17:30;100938.84;;;23.82;51.44
26487;BME280;14425;56.136;40.360;2022-08-24T04:19:55;100935.38;;;23.92;52.15
26487;BME280;14425;56.136;40.360;2022-08-24T04:22:28;100932.72;;;23.79;52.89
26487;BME280;14425;56.136;40.360;2022-08-24T04:24:54;100941.53;;;23.86;52.83
26487;BME280;14425;56.136;40.360;2022-08-24T04:27:20;100943.28;;;23.96;53.63
26487;BME280;14425;56.136;40.360;2022-08-24T04:29:46;100936.28;;;23.91;54.03
26487;BME280;14425;56.136;40.360;2022-08-24T04:32:12;100945.91;;;23.83;55.09
26487;BME280;14425;56.136;40.360;2022-08-24T04:34:40;100940.63;;;23.87;56.07
26487;BME280;14425;56.136;40.360;2022-08-24T04:37:07;100942.41;;;24.04;53.91
26487;BME280;14425;56.136;40.360;2022-08-24T04:39:33;100943.28;;;24.30;51.54
26487;BME280;14425;56.136;40.360;2022-08-24T04:41:58;100944.16;;;24.51;51.45
26487;BME280;14425;56.136;40.360;2022-08-24T04:44:24;100940.66;;;24.70;50.83
26487;BME280;14425;56.136;40.360;2022-08-24T04:46:50;100945.03;;;24.75;50.59
26487;BME280;14425;56.136;40.360;2022-08-24T04:49:15;100940.59;;;24.86;50.46
26487;BME280;14425;56.136;40.360;2022-08-24T04:51:41;100943.19;;;25.01;49.04
26487;BME280;14425;56.136;40.360;2022-08-24T04:54:07;100951.94;;;25.20;48.73
26487;BME280;14425;56.136;40.360;2022-08-24T04:56:33;100943.97;;;25.33;47.30
26487;BME280;14425;56.136;40.360;2022-08-24T04:58:59;100940.41;;;25.43;47.65
26487;BME280;14425;56.136;40.360;2022-08-24T05:01:29;100943.88;;;25.53;46.73
26487;BME280;14425;56.136;40.360;2022-08-24T05:03:57;100942.03;;;25.67;46.25
26487;BME280;14425;56.136;40.360;2022-08-24T05:06:24;100941.06;;;25.80;45.35
26487;BME280;14425;56.136;40.360;2022-08-24T05:08:51;100936.63;;;25.86;46.23
26487;BME280;14425;56.136;40.360;2022-08-24T05:11:17;100937.47;;;25.89;48.29
26487;BME280;14425;56.136;40.360;2022-08-24T05:13:43;100932.16;;;25.98;47.86
26487;BME280;14425;56.136;40.360;2022-08-24T05:16:10;100936.47;;;26.10;47.99
26487;BME280;14425;56.136;40.360;2022-08-24T05:18:37;100930.16;;;26.27;47.72
26487;BME280;14425;56.136;40.360;2022-08-24T05:21:12;100930.97;;;26.33;47.04
26487;BME280;14425;56.136;40.360;2022-08-24T05:23:38;100934.34;;;26.48;47.08
26487;BME280;14425;56.136;40.360;2022-08-24T05:26:09;100926.38;;;26.51;47.35
26487;BME280;14425;56.136;40.360;2022-08-24T05:28:35;100932.47;;;26.64;46.51
26487;BME280;14425;56.136;40.360;2022-08-24T05:31:05;100924.44;;;26.75;45.54
26487;BME280;14425;56.136;40.360;2022-08-24T05:33:31;100924.38;;;26.76;45.94
26487;BME280;14425;56.136;40.360;2022-08-24T05:35:57;100926.06;;;26.85;46.54
26487;BME280;14425;56.136;40.360;2022-08-24T05:38:22;100933.25;;;26.75;46.75
26487;BME280;14425;56.136;40.360;2022-08-24T05:40:48;100930.53;;;26.81;45.78
26487;BME280;14425;56.136;40.360;2022-08-24T05:43:14;100929.41;;;27.01;46.18
26487;BME280;14425;56.136;40.360;2022-08-24T05:45:40;100925.66;;;27.17;46.11
26487;BME280;14425;56.136;40.360;2022-08-24T05:48:07;100920.97;;;27.41;44.14
26487;BME280;14425;56.136;40.360;2022-08-24T05:50:33;100919.00;;;27.55;42.83
26487;BME280;14425;56.136;40.360;2022-08-24T05:52:59;100920.50;;;27.75;40.66
26487;BME280;14425;56.136;40.360;2022-08-24T05:55:24;100926.72;;;27.71;40.37
26487;BME280;14425;56.136;40.360;2022-08-24T05:57:50;100923.56;;;27.44;38.84
26487;BME280;14425;56.136;40.360;2022-08-24T06:00:17;100931.97;;;27.74;38.77
26487;BME280;14425;56.136;40.360;2022-08-24T06:02:42;100926.69;;;27.72;38.47
26487;BME280;14425;56.136;40.360;2022-08-24T06:05:08;100925.03;;;27.65;38.64
26487;BME280;14425;56.136;40.360;2022-08-24T06:07:34;100933.53;;;27.87;38.27
26487;BME280;14425;56.136;40.360;2022-08-24T06:10:00;100926.13;;;28.11;38.00
26487;BME280;14425;56.136;40.360;2022-08-24T06:12:25;100924.34;;;28.11;38.33
26487;BME280;14425;56.136;40.360;2022-08-24T06:14:51;100926.84;;;28.19;37.71
26487;BME280;14425;56.136;40.360;2022-08-24T06:17:18;100933.91;;;28.20;37.58
26487;BME280;14425;56.136;40.360;2022-08-24T06:19:43;100927.59;;;27.73;35.55
26487;BME280;14425;56.136;40.360;2022-08-24T06:22:09;100923.06;;;27.81;36.01
26487;BME280;14425;56.136;40.360;2022-08-24T06:24:35;100931.56;;;28.03;35.61
26487;BME280;14425;56.136;40.360;2022-08-24T06:27:20;100931.09;;;28.31;34.79
26487;BME280;14425;56.136;40.360;2022-08-24T06:32:14;100928.06;;;28.51;35.87
26487;BME280;14425;56.136;40.360;2022-08-24T06:34:40;100927.81;;;28.66;34.39
26487;BME280;14425;56.136;40.360;2022-08-24T06:37:06;100932.22;;;28.67;34.02
26487;BME280;14425;56.136;40.360;2022-08-24T06:39:32;100931.88;;;28.86;34.15
26487;BME280;14425;56.136;40.360;2022-08-24T06:44:53;100942.53;;;29.28;34.60
26487;BME280;14425;56.136;40.360;2022-08-24T06:47:19;100938.63;;;29.02;34.02
26487;BME280;14425;56.136;40.360;2022-08-24T06:49:46;100932.16;;;29.14;34.51
26487;BME280;14425;56.136;40.360;2022-08-24T06:52:12;100944.88;;;28.98;34.22
26487;BME280;14425;56.136;40.360;2022-08-24T06:54:41;100941.31;;;29.43;34.04
26487;BME280;14425;56.136;40.360;2022-08-24T06:57:07;100938.50;;;29.51;34.03
26487;BME280;14425;56.136;40.360;2022-08-24T06:59:33;100933.75;;;29.63;33.71
26487;BME280;14425;56.136;40.360;2022-08-24T07:01:58;100937.59;;;29.91;33.58
26487;BME280;14425;56.136;40.360;2022-08-24T07:04:25;100939.16;;;30.34;33.23
26487;BME280;14425;56.136;40.360;2022-08-24T07:06:51;100936.16;;;30.81;32.97
26487;BME280;14425;56.136;40.360;2022-08-24T07:09:16;100931.50;;;31.20;32.64
26487;BME280;14425;56.136;40.360;2022-08-24T07:11:42;100932.59;;;31.99;31.36
26487;BME280;14425;56.136;40.360;2022-08-24T07:14:08;100927.09;;;32.31;31.05
26487;BME280;14425;56.136;40.360;2022-08-24T07:16:35;100928.28;;;32.22;30.67
26487;BME280;14425;56.136;40.360;2022-08-24T07:19:01;100936.03;;;32.30;29.99
26487;BME280;14425;56.136;40.360;2022-08-24T07:21:30;100929.94;;;32.51;30.11
26487;BME280;14425;56.136;40.360;2022-08-24T07:23:57;100931.94;;;32.19;29.85
26487;BME280;14425;56.136;40.360;2022-08-24T07:26:24;100926.22;;;32.03;30.46
26487;BME280;14425;56.136;40.360;2022-08-24T07:28:52;100928.34;;;32.46;30.02
26487;BME280;14425;56.136;40.360;2022-08-24T07:31:18;100926.69;;;31.90;29.81
26487;BME280;14425;56.136;40.360;2022-08-24T07:33:47;100925.47;;;32.27;29.91
26487;BME280;14425;56.136;40.360;2022-08-24T07:36:13;100925.25;;;32.83;29.08
26487;BME280;14425;56.136;40.360;2022-08-24T07:38:43;100916.72;;;32.97;28.29
26487;BME280;14425;56.136;40.360;2022-08-24T07:41:09;100918.66;;;32.43;28.89
26487;BME280;14425;56.136;40.360;2022-08-24T07:43:34;100916.31;;;33.08;28.44
26487;BME280;14425;56.136;40.360;2022-08-24T07:46:00;100911.78;;;32.61;28.66
26487;BME280;14425;56.136;40.360;2022-08-24T07:48:29;100912.16;;;33.01;28.21
26487;BME280;14425;56.136;40.360;2022-08-24T07:50:55;100918.69;;;33.39;27.77
26487;BME280;14425;56.136;40.360;2022-08-24T07:53:24;100916.03;;;33.39;27.04
26487;BME280;14425;56.136;40.360;2022-08-24T07:55:55;100909.69;;;33.86;27.79
26487;BME280;14425;56.136;40.360;2022-08-24T07:58:21;100904.88;;;35.16;26.78
26487;BME280;14425;56.136;40.360;2022-08-24T08:00:47;100905.81;;;34.15;26.58
26487;BME280;14425;56.136;40.360;2022-08-24T08:03:13;100911.41;;;33.65;26.58
26487;BME280;14425;56.136;40.360;2022-08-24T08:05:41;100908.91;;;33.84;26.38
26487;BME280;14425;56.136;40.360;2022-08-24T08:08:07;100914.91;;;34.52;25.97
26487;BME280;14425;56.136;40.360;2022-08-24T08:10:33;100912.81;;;33.97;26.56
26487;BME280;14425;56.136;40.360;2022-08-24T08:13:01;100906.97;;;33.87;25.88
26487;BME280;14425;56.136;40.360;2022-08-24T08:15:26;100897.16;;;35.10;25.72
26487;BME280;14425;56.136;40.360;2022-08-24T08:17:54;100898.38;;;35.22;26.20
26487;BME280;14425;56.136;40.360;2022-08-24T08:20:20;100905.88;;;34.34;26.45
26487;BME280;14425;56.136;40.360;2022-08-24T08:22:46;100907.09;;;34.48;26.47
26487;BME280;14425;56.136;40.360;2022-08-24T08:25:30;100888.44;;;35.43;25.44
26487;BME280;14425;56.136;40.360;2022-08-24T08:27:57;100888.41;;;35.05;24.73
26487;BME280;14425;56.136;40.360;2022-08-24T08:30:23;100891.72;;;35.30;25.85
26487;BME280;14425;56.136;40.360;2022-08-24T08:32:54;100888.91;;;35.87;24.95
26487;BME280;14425;56.136;40.360;2022-08-24T08:35:20;100882.91;;;35.46;25.36
26487;BME280;14425;56.136;40.360;2022-08-24T08:37:50;100895.09;;;34.15;25.52
26487;BME280;14425;56.136;40.360;2022-08-24T08:43:09;100902.28;;;33.48;26.36
26487;BME280;14425;56.136;40.360;2022-08-24T08:48:14;100882.75;;;35.68;24.32
26487;BME280;14425;56.136;40.360;2022-08-24T11:45:36;100801.47;;;35.29;21.79
26487;BME280;14425;56.136;40.360;2022-08-24T11:51:10;100789.06;;;35.63;21.09
26487;BME280;14425;56.136;40.360;2022-08-24T11:53:46;100792.22;;;35.37;22.13
26487;BME280;14425;56.136;40.360;2022-08-24T11:56:21;100796.78;;;35.52;21.42
26487;BME280;14425;56.136;40.360;2022-08-24T12:06:57;100774.94;;;35.95;21.84
26487;BME280;14425;56.136;40.360;2022-08-24T12:14:39;100769.91;;;36.39;20.57
26487;BME280;14425;56.136;40.360;2022-08-24T12:19:43;100768.44;;;35.29;22.05
26487;BME280;14425;56.136;40.360;2022-08-24T12:22:10;100766.88;;;34.30;22.40
26487;BME280;14425;56.136;40.360;2022-08-24T12:24:51;100774.13;;;34.07;22.92
26487;BME280;14425;56.136;40.360;2022-08-24T12:27:28;100763.81;;;35.50;22.53
26487;BME280;14425;56.136;40.360;2022-08-24T12:30:13;100766.09;;;35.21;22.20
26487;BME280;14425;56.136;40.360;2022-08-24T12:32:47;100770.94;;;34.57;23.07
26487;BME280;14425;56.136;40.360;2022-08-24T12:35:16;100769.13;;;33.79;23.72
26487;BME280;14425;56.136;40.360;2022-08-24T12:37:50;100769.97;;;33.79;23.68
26487;BME280;14425;56.136;40.360;2022-08-24T12:43:06;100746.84;;;35.13;22.20
26487;BME280;14425;56.136;40.360;2022-08-24T12:45:33;100756.81;;;34.35;22.12
26487;BME280;14425;56.136;40.360;2022-08-24T12:48:14;100759.38;;;33.97;22.42
26487;BME280;14425;56.136;40.360;2022-08-24T12:53:21;100755.03;;;34.15;22.43
26487;BME280;14425;56.136;40.360;2022-08-24T13:01:19;100753.91;;;34.00;22.59
26487;BME280;14425;56.136;40.360;2022-08-24T13:09:14;100741.81;;;33.06;23.73
26487;BME280;14425;56.136;40.360;2022-08-24T13:11:41;100746.69;;;33.61;23.22
26487;BME280;14425;56.136;40.360;2022-08-24T13:14:17;100735.84;;;33.64;23.07
26487;BME280;14425;56.136;40.360;2022-08-24T13:16:46;100742.66;;;33.50;23.26
26487;BME280;14425;56.136;40.360;2022-08-24T13:21:48;100733.03;;;33.67;23.34
26487;BME280;14425;56.136;40.360;2022-08-24T13:35:55;100724.78;;;33.08;23.57
26487;BME280;14425;56.136;40.360;2022-08-24T13:40:56;100726.34;;;32.92;23.63
26487;BME280;14425;56.136;40.360;2022-08-24T13:57:33;100709.25;;;32.74;24.34
26487;BME280;14425;56.136;40.360;2022-08-24T14:03:00;100720.50;;;32.13;25.10
26487;BME280;14425;56.136;40.360;2022-08-24T14:18:13;100721.06;;;31.71;26.15
26487;BME280;14425;56.136;40.360;2022-08-24T14:24:03;100716.94;;;31.62;26.10
26487;BME280;14425;56.136;40.360;2022-08-24T14:34:22;100715.25;;;31.06;27.12
26487;BME280;14425;56.136;40.360;2022-08-24T14:37:16;100710.28;;;30.95;27.98
26487;BME280;14425;56.136;40.360;2022-08-24T14:45:06;100703.97;;;31.51;27.58
26487;BME280;14425;56.136;40.360;2022-08-24T14:47:37;100707.03;;;31.39;27.45
26487;BME280;14425;56.136;40.360;2022-08-24T14:50:11;100704.88;;;31.25;27.80
26487;BME280;14425;56.136;40.360;2022-08-24T14:53:03;100701.63;;;31.15;30.01
26487;BME280;14425;56.136;40.360;2022-08-24T15:01:25;100706.19;;;30.24;30.64
26487;BME280;14425;56.136;40.360;2022-08-24T15:06:47;100696.94;;;30.38;29.64
26487;BME280;14425;56.136;40.360;2022-08-24T15:11:41;100698.94;;;30.88;30.33
26487;BME280;14425;56.136;40.360;2022-08-24T15:14:18;100687.97;;;30.69;32.75
26487;BME280;14425;56.136;40.360;2022-08-24T15:16:48;100690.69;;;30.68;31.44
26487;BME280;14425;56.136;40.360;2022-08-24T15:19:24;100693.97;;;30.76;31.21
26487;BME280;14425;56.136;40.360;2022-08-24T15:22:04;100685.56;;;30.62;32.90
26487;BME280;14425;56.136;40.360;2022-08-24T15:27:08;100688.31;;;30.58;30.92
26487;BME280;14425;56.136;40.360;2022-08-24T15:29:35;100688.56;;;30.51;31.21
26487;BME280;14425;56.136;40.360;2022-08-24T15:32:11;100685.44;;;30.65;31.69
26487;BME280;14425;56.136;40.360;2022-08-24T15:34:41;100685.44;;;30.65;30.88
26487;BME280;14425;56.136;40.360;2022-08-24T15:37:10;100681.25;;;30.57;30.52
26487;BME280;14425;56.136;40.360;2022-08-24T15:39:36;100684.59;;;30.64;30.44
26487;BME280;14425;56.136;40.360;2022-08-24T15:42:10;100687.66;;;30.52;30.56
26487;BME280;14425;56.136;40.360;2022-08-24T15:44:44;100684.09;;;30.51;30.39
26487;BME280;14425;56.136;40.360;2022-08-24T15:47:13;100686.13;;;30.43;30.61
26487;BME280;14425;56.136;40.360;2022-08-24T15:52:41;100684.63;;;30.33;32.16
26487;BME280;14425;56.136;40.360;2022-08-24T15:57:52;100695.34;;;30.00;33.02
26487;BME280;14425;56.136;40.360;2022-08-24T16:00:19;100688.34;;;29.63;34.17
26487;BME280;14425;56.136;40.360;2022-08-24T16:03:22;100692.66;;;29.34;33.81
26487;BME280;14425;56.136;40.360;2022-08-24T16:05:49;100702.41;;;28.96;35.10
26487;BME280;14425;56.136;40.360;2022-08-24T16:08:15;100703.84;;;29.11;34.46
26487;BME280;14425;56.136;40.360;2022-08-24T16:10:45;100707.34;;;29.11;34.45
26487;BME280;14425;56.136;40.360;2022-08-24T16:15:52;100712.06;;;29.38;33.23
26487;BME280;14425;56.136;40.360;2022-08-24T16:18:24;100707.38;;;29.47;33.04
26487;BME280;14425;56.136;40.360;2022-08-24T16:21:12;100709.28;;;29.42;32.80
26487;BME280;14425;56.136;40.360;2022-08-24T16:23:38;100703.94;;;29.06;34.19
26487;BME280;14425;56.136;40.360;2022-08-24T16:28:42;100702.78;;;28.81;33.43
26487;BME280;14425;56.136;40.360;2022-08-24T16:31:08;100714.19;;;28.86;33.59
26487;BME280;14425;56.136;40.360;2022-08-24T16:35:59;100704.94;;;29.02;33.26
26487;BME280;14425;56.136;40.360;2022-08-24T16:38:25;100710.91;;;29.12;33.43
26487;BME280;14425;56.136;40.360;2022-08-24T16:40:51;100708.66;;;28.93;34.08
26487;BME280;14425;56.136;40.360;2022-08-24T16:43:17;100716.88;;;28.84;35.23
26487;BME280;14425;56.136;40.360;2022-08-24T16:45:42;100719.53;;;28.84;35.62
26487;BME280;14425;56.136;40.360;2022-08-24T16:50:39;100719.66;;;28.78;36.70
26487;BME280;14425;56.136;40.360;2022-08-24T16:53:04;100717.28;;;28.66;37.54
26487;BME280;14425;56.136;40.360;2022-08-24T16:55:50;100727.94;;;28.64;37.53
26487;BME280;14425;56.136;40.360;2022-08-24T16:58:28;100721.31;;;28.42;37.62
26487;BME280;14425;56.136;40.360;2022-08-24T17:04:11;100720.94;;;28.60;36.78
26487;BME280;14425;56.136;40.360;2022-08-24T17:06:46;100716.91;;;28.41;37.50
26487;BME280;14425;56.136;40.360;2022-08-24T17:09:37;100721.03;;;28.12;37.24
26487;BME280;14425;56.136;40.360;2022-08-24T17:12:34;100727.19;;;28.14;37.82
26487;BME280;14425;56.136;40.360;2022-08-24T17:18:48;100722.41;;;27.86;37.73
26487;BME280;14425;56.136;40.360;2022-08-24T17:21:32;100731.41;;;27.76;37.45
26487;BME280;14425;56.136;40.360;2022-08-24T17:24:06;100728.88;;;27.70;36.87
26487;BME280;14425;56.136;40.360;2022-08-24T17:26:41;100735.06;;;27.69;37.05
26487;BME280;14425;56.136;40.360;2022-08-24T17:29:19;100728.63;;;27.32;37.02
26487;BME280;14425;56.136;40.360;2022-08-24T17:31:49;100731.19;;;27.38;37.34
26487;BME280;14425;56.136;40.360;2022-08-24T17:34:21;100726.94;;;27.28;37.57
26487;BME280;14425;56.136;40.360;2022-08-24T17:37:07;100732.59;;;27.05;37.87
26487;BME280;14425;56.136;40.360;2022-08-24T17:40:11;100721.88;;;27.11;38.15
26487;BME280;14425;56.136;40.360;2022-08-24T17:42:51;100729.50;;;27.33;38.40
26487;BME280;14425;56.136;40.360;2022-08-24T17:46:11;100729.44;;;27.37;37.73
26487;BME280;14425;56.136;40.360;2022-08-24T17:55:36;100721.31;;;27.48;37.32
26487;BME280;14425;56.136;40.360;2022-08-24T17:58:44;100720.72;;;27.31;37.58
26487;BME280;14425;56.136;40.360;2022-08-24T18:04:34;100728.44;;;26.87;38.43
26487;BME280;14425;56.136;40.360;2022-08-24T18:07:02;100724.44;;;26.55;37.85
26487;BME280;14425;56.136;40.360;2022-08-24T18:15:06;100721.84;;;26.50;40.11
26487;BME280;14425;56.136;40.360;2022-08-24T18:20:21;100725.25;;;26.62;38.75
26487;BME280;14425;56.136;40.360;2022-08-24T18:22:52;100725.28;;;26.57;39.49
26487;BME280;14425;56.136;40.360;2022-08-24T18:25:18;100722.63;;;26.59;38.61
26487;BME280;14425;56.136;40.360;2022-08-24T18:30:41;100720.13;;;26.48;37.53
26487;BME280;14425;56.136;40.360;2022-08-24T18:33:07;100724.81;;;26.24;40.64
26487;BME280;14425;56.136;40.360;2022-08-24T18:35:33;100722.16;;;26.26;40.44
26487;BME280;14425;56.136;40.360;2022-08-24T18:38:06;100722.13;;;26.30;40.28
26487;BME280;14425;56.136;40.360;2022-08-24T18:43:34;100715.69;;;26.50;39.89
26487;BME280;14425;56.136;40.360;2022-08-24T18:46:02;100709.88;;;26.23;40.38
26487;BME280;14425;56.136;40.360;2022-08-24T18:48:46;100718.72;;;26.21;39.32
26487;BME280;14425;56.136;40.360;2022-08-24T18:51:14;100709.94;;;26.18;39.87
26487;BME280;14425;56.136;40.360;2022-08-24T18:54:04;100714.53;;;25.98;39.61
26487;BME280;14425;56.136;40.360;2022-08-24T18:59:52;100717.69;;;26.31;41.12
26487;BME280;14425;56.136;40.360;2022-08-24T19:02:18;100724.09;;;26.11;39.19
26487;BME280;14425;56.136;40.360;2022-08-24T19:04:58;100721.44;;;26.11;39.66
26487;BME280;14425;56.136;40.360;2022-08-24T19:07:45;100724.94;;;26.16;41.59
26487;BME280;14425;56.136;40.360;2022-08-24T19:10:15;100722.16;;;26.27;42.36
26487;BME280;14425;56.136;40.360;2022-08-24T19:12:48;100718.44;;;26.41;42.87
26487;BME280;14425;56.136;40.360;2022-08-24T19:15:16;100724.97;;;26.13;43.12
26487;BME280;14425;56.136;40.360;2022-08-24T19:18:01;100722.16;;;26.27;45.94
26487;BME280;14425;56.136;40.360;2022-08-24T19:20:30;100721.81;;;26.55;46.17
26487;BME280;14425;56.136;40.360;2022-08-24T19:23:28;100719.81;;;26.72;45.16
26487;BME280;14425;56.136;40.360;2022-08-24T19:28:39;100724.41;;;26.60;44.18
26487;BME280;14425;56.136;40.360;2022-08-24T19:31:24;100724.69;;;26.36;43.61
26487;BME280;14425;56.136;40.360;2022-08-24T19:33:50;100718.59;;;26.31;45.75
26487;BME280;14425;56.136;40.360;2022-08-24T19:36:17;100716.50;;;26.55;46.03
26487;BME280;14425;56.136;40.360;2022-08-24T19:38:43;100717.28;;;26.66;45.85